createdAt,value
2019-01-21T00:00:16.120Z,7.63
2019-01-21T00:02:44.445Z,8.07
2019-01-21T00:05:11.021Z,7.83
2019-01-21T00:07:37.890Z,7.40
2019-01-21T00:10:04.570Z,7.87
2019-01-21T00:12:31.296Z,7.33
2019-01-21T00:15:00.878Z,6.67
2019-01-21T00:17:27.575Z,7.50
2019-01-21T00:19:54.675Z,7.67
2019-01-21T00:22:21.945Z,8.43
2019-01-21T00:24:48.654Z,8.10
2019-01-21T00:27:15.410Z,7.70
2019-01-21T00:29:42.129Z,8.83
2019-01-21T00:32:08.789Z,7.23
2019-01-21T00:34:37.361Z,8.13
2019-01-21T00:37:03.958Z,8.00
2019-01-21T00:39:30.677Z,7.50
2019-01-21T00:41:57.301Z,7.57
2019-01-21T00:44:25.911Z,7.97
2019-01-21T00:46:52.456Z,7.87
2019-01-21T00:49:19.495Z,7.77
2019-01-21T00:51:46.633Z,8.33
2019-01-21T00:54:13.359Z,7.97
2019-01-21T00:56:40.461Z,8.03
2019-01-21T00:59:07.208Z,7.80
2019-01-21T01:01:33.834Z,7.37
2019-01-21T01:04:02.455Z,7.23
2019-01-21T01:06:29.177Z,7.97
2019-01-21T01:08:56.915Z,7.27
2019-01-21T01:11:23.517Z,7.37
2019-01-21T01:13:50.388Z,8.00
2019-01-21T01:16:17.867Z,7.27
2019-01-21T01:18:44.978Z,7.23
2019-01-21T01:21:11.568Z,7.80
2019-01-21T01:23:38.218Z,7.47
2019-01-21T01:26:05.018Z,6.93
2019-01-21T01:28:31.862Z,8.13
2019-01-21T01:30:58.610Z,6.57
2019-01-21T01:33:25.666Z,7.53
2019-01-21T01:35:52.716Z,7.60
2019-01-21T01:38:19.523Z,8.00
2019-01-21T01:40:46.266Z,7.30
2019-01-21T01:43:13.364Z,7.70
2019-01-21T01:45:40.228Z,7.73
2019-01-21T01:48:07.122Z,6.93
2019-01-21T01:50:33.824Z,9.03
2019-01-21T01:53:00.495Z,7.57
2019-01-21T01:55:28.753Z,7.27
2019-01-21T01:57:56.627Z,8.07
2019-01-21T02:00:23.219Z,6.53
2019-01-21T02:02:49.919Z,7.60
2019-01-21T02:05:16.562Z,6.90
2019-01-21T02:07:43.176Z,6.80
2019-01-21T02:10:09.773Z,6.60
2019-01-21T02:12:36.348Z,6.77
2019-01-21T02:15:03.180Z,6.90
2019-01-21T02:17:29.755Z,7.27
2019-01-21T02:22:36.698Z,7.37
2019-01-21T02:25:03.471Z,7.77
2019-01-21T02:27:30.883Z,7.53
2019-01-21T02:29:57.633Z,6.20
2019-01-21T02:32:24.648Z,6.80
2019-01-21T02:34:51.395Z,7.17
2019-01-21T02:37:18.521Z,6.70
2019-01-21T02:39:45.163Z,7.73
2019-01-21T02:42:12.178Z,6.20
2019-01-21T02:44:38.894Z,6.77
2019-01-21T02:47:05.513Z,6.97
2019-01-21T02:49:32.497Z,6.77
2019-01-21T02:51:59.369Z,7.37
2019-01-21T02:54:26.010Z,6.53
2019-01-21T02:56:53.048Z,7.23
2019-01-21T02:59:19.717Z,7.17
2019-01-21T03:01:46.547Z,6.40
2019-01-21T03:04:13.242Z,6.30
2019-01-21T03:06:40.024Z,7.30
2019-01-21T03:09:06.617Z,6.77
2019-01-21T03:11:33.376Z,8.00
2019-01-21T03:14:00.193Z,6.80
2019-01-21T03:16:27.240Z,6.73
2019-01-21T03:18:53.930Z,7.73
2019-01-21T03:21:20.782Z,6.63
2019-01-21T03:23:47.823Z,7.87
2019-01-21T03:26:14.795Z,8.03
2019-01-21T03:28:43.227Z,7.20
2019-01-21T03:31:10.108Z,6.50
2019-01-21T03:33:37.182Z,6.70
2019-01-21T03:36:05.722Z,6.87
2019-01-21T03:38:34.421Z,6.63
2019-01-21T03:41:04.293Z,7.50
2019-01-21T03:43:33.339Z,6.13
2019-01-21T03:46:03.217Z,6.67
2019-01-21T03:48:33.280Z,6.20
2019-01-21T03:51:04.574Z,7.07
2019-01-21T03:53:33.222Z,6.10
2019-01-21T03:56:01.056Z,6.60
2019-01-21T03:58:29.454Z,7.27
2019-01-21T04:00:57.499Z,7.00
2019-01-21T04:03:27.609Z,7.27
2019-01-21T04:05:56.547Z,6.17
2019-01-21T04:08:25.382Z,7.60
2019-01-21T04:10:54.010Z,6.70
2019-01-21T04:13:23.139Z,6.93
2019-01-21T04:15:50.927Z,6.10
2019-01-21T04:18:24.491Z,6.57
2019-01-21T04:20:46.870Z,6.73
2019-01-21T04:23:14.571Z,6.97
2019-01-21T04:25:41.258Z,6.97
2019-01-21T04:28:07.937Z,6.33
2019-01-21T04:30:34.693Z,6.93
2019-01-21T04:33:01.805Z,7.57
2019-01-21T04:35:29.005Z,6.30
2019-01-21T04:37:57.244Z,7.17
2019-01-21T04:40:26.222Z,7.07
2019-01-21T04:42:54.244Z,6.07
2019-01-21T04:45:21.074Z,6.53
2019-01-21T04:47:49.646Z,6.33
2019-01-21T04:50:16.460Z,6.50
2019-01-21T04:52:43.242Z,6.83
2019-01-21T04:55:13.720Z,7.33
2019-01-21T04:57:43.519Z,7.20
2019-01-21T05:00:12.224Z,6.40
2019-01-21T05:02:39.216Z,6.93
2019-01-21T05:05:06.191Z,7.40
2019-01-21T05:07:33.005Z,6.37
2019-01-21T05:09:59.662Z,7.23
2019-01-21T05:12:26.448Z,6.17
2019-01-21T05:14:53.242Z,6.47
2019-01-21T05:17:22.382Z,6.97
2019-01-21T05:19:49.603Z,6.47
2019-01-21T05:22:16.542Z,6.47
2019-01-21T05:24:45.038Z,6.20
2019-01-21T05:27:11.760Z,6.27
2019-01-21T05:29:38.483Z,6.43
2019-01-21T05:32:05.325Z,6.33
2019-01-21T05:34:32.380Z,5.83
2019-01-21T05:36:59.031Z,6.90
2019-01-21T05:39:26.751Z,6.83
2019-01-21T05:41:53.508Z,5.63
2019-01-21T05:44:20.279Z,6.00
2019-01-21T05:46:47.251Z,5.77
2019-01-21T05:49:14.063Z,5.67
2019-01-21T05:51:40.587Z,5.40
2019-01-21T05:54:07.439Z,6.20
2019-01-21T05:56:34.133Z,6.23
2019-01-21T05:59:02.997Z,5.47
2019-01-21T06:01:30.219Z,5.20
2019-01-21T06:03:56.947Z,5.40
2019-01-21T06:06:23.537Z,5.20
2019-01-21T06:08:50.157Z,6.67
2019-01-21T06:11:16.956Z,5.77
2019-01-21T06:13:43.856Z,5.47
2019-01-21T06:16:10.712Z,5.67
2019-01-21T06:18:38.469Z,6.50
2019-01-21T06:21:05.315Z,5.43
2019-01-21T06:23:32.163Z,5.43
2019-01-21T06:25:58.894Z,5.47
2019-01-21T06:28:25.634Z,5.90
2019-01-21T06:30:54.495Z,5.90
2019-01-21T06:33:21.649Z,5.10
2019-01-21T06:35:48.236Z,5.70
2019-01-21T06:38:15.264Z,6.43
2019-01-21T06:40:41.868Z,5.27
2019-01-21T06:43:08.866Z,5.20
2019-01-21T06:45:35.781Z,6.17
2019-01-21T06:48:02.520Z,5.57
2019-01-21T06:50:29.282Z,5.37
2019-01-21T06:52:55.982Z,5.60
2019-01-21T06:55:22.587Z,5.90
2019-01-21T06:57:53.036Z,5.47
2019-01-21T07:00:22.826Z,5.40
2019-01-21T07:02:51.152Z,6.30
2019-01-21T07:05:21.206Z,6.07
2019-01-21T07:07:48.294Z,6.07
2019-01-21T07:10:14.946Z,6.67
2019-01-21T07:12:41.616Z,6.90
2019-01-21T07:15:08.410Z,6.63
2019-01-21T07:17:35.634Z,5.37
2019-01-21T07:20:02.434Z,5.73
2019-01-21T07:22:29.168Z,6.33
2019-01-21T07:24:55.970Z,5.47
2019-01-21T07:27:22.749Z,5.20
2019-01-21T07:29:49.604Z,6.17
2019-01-21T07:32:16.221Z,5.40
2019-01-21T07:34:43.178Z,6.00
2019-01-21T07:37:09.935Z,5.47
2019-01-21T07:39:36.670Z,5.80
2019-01-21T07:42:05.847Z,6.10
2019-01-21T07:44:32.520Z,5.77
2019-01-21T07:46:59.565Z,6.70
2019-01-21T07:49:28.186Z,6.13
2019-01-21T07:51:55.203Z,6.53
2019-01-21T07:54:22.448Z,7.17
2019-01-21T07:56:49.159Z,7.20
2019-01-21T07:59:17.096Z,7.47
2019-01-21T08:01:44.001Z,7.47
2019-01-21T08:04:10.761Z,6.50
2019-01-21T08:06:37.573Z,7.67
2019-01-21T08:09:06.056Z,6.70
2019-01-21T08:11:32.891Z,6.90
2019-01-21T08:13:59.549Z,6.77
2019-01-21T08:16:26.273Z,6.67
2019-01-21T08:18:53.113Z,6.80
2019-01-21T08:21:19.929Z,7.43
2019-01-21T08:23:48.792Z,6.67
2019-01-21T08:26:15.542Z,8.03
2019-01-21T08:28:42.435Z,8.17
2019-01-21T08:31:09.511Z,6.73
2019-01-21T08:33:36.299Z,7.33
2019-01-21T08:36:03.107Z,7.00
2019-01-21T08:38:31.147Z,7.47
2019-01-21T08:40:58.149Z,7.03
2019-01-21T08:43:25.240Z,6.80
2019-01-21T08:45:51.909Z,6.93
2019-01-21T08:48:18.726Z,6.10
2019-01-21T08:50:45.803Z,6.37
2019-01-21T08:53:12.673Z,7.13
2019-01-21T08:55:41.355Z,6.47
2019-01-21T08:58:07.934Z,6.07
2019-01-21T09:00:34.677Z,6.67
2019-01-21T09:03:02.554Z,7.63
2019-01-21T09:05:29.265Z,6.13
2019-01-21T09:07:56.210Z,6.53
2019-01-21T09:10:24.976Z,6.37
2019-01-21T09:12:51.576Z,6.47
2019-01-21T09:15:18.257Z,6.57
2019-01-21T09:17:44.958Z,6.60
2019-01-21T09:20:11.630Z,7.20
2019-01-21T09:22:38.292Z,7.20
2019-01-21T09:25:05.276Z,6.53
2019-01-21T09:27:32.464Z,6.37
2019-01-21T09:29:59.243Z,6.07
2019-01-21T09:32:25.980Z,6.23
2019-01-21T09:34:54.697Z,6.20
2019-01-21T09:37:21.453Z,7.70
2019-01-21T09:39:48.276Z,6.40
2019-01-21T09:42:14.900Z,6.57
2019-01-21T09:44:42.169Z,5.40
2019-01-21T09:47:08.984Z,6.33
2019-01-21T09:49:35.877Z,7.73
2019-01-21T09:52:02.658Z,6.40
2019-01-21T09:54:29.472Z,6.23
2019-01-21T09:56:56.230Z,6.93
2019-01-21T09:59:26.127Z,7.30
2019-01-21T10:01:53.238Z,6.40
2019-01-21T10:04:23.868Z,6.57
2019-01-21T10:06:50.502Z,6.80
2019-01-21T10:09:17.591Z,8.53
2019-01-21T10:11:46.653Z,6.47
2019-01-21T10:14:14.593Z,7.37
2019-01-21T10:16:41.243Z,7.60
2019-01-21T10:19:07.884Z,7.27
2019-01-21T10:21:34.585Z,7.93
2019-01-21T10:24:01.176Z,6.93
2019-01-21T10:26:27.817Z,6.63
2019-01-21T10:28:54.426Z,6.90
2019-01-21T10:31:21.047Z,6.27
2019-01-21T10:33:47.734Z,7.50
2019-01-21T10:36:14.419Z,6.23
2019-01-21T10:38:41.088Z,7.80
2019-01-21T10:41:07.682Z,6.90
2019-01-21T10:43:34.322Z,7.20
2019-01-21T10:46:00.937Z,8.00
2019-01-21T10:48:27.675Z,7.37
2019-01-21T10:50:54.432Z,7.17
2019-01-21T10:53:21.031Z,7.93
2019-01-21T10:55:47.986Z,7.20
2019-01-21T10:58:14.871Z,7.60
2019-01-21T11:00:41.480Z,6.77
2019-01-21T11:03:08.114Z,6.33
2019-01-21T11:05:36.008Z,7.57
2019-01-21T11:08:02.747Z,6.93
2019-01-21T11:10:29.403Z,7.80
2019-01-21T11:12:56.017Z,6.77
2019-01-21T11:15:22.850Z,7.80
2019-01-21T11:17:51.301Z,7.73
2019-01-21T11:20:18.203Z,7.77
2019-01-21T11:22:44.953Z,6.97
2019-01-21T11:25:11.595Z,7.70
2019-01-21T11:27:38.233Z,8.37
2019-01-21T11:30:05.176Z,8.50
2019-01-21T11:32:32.143Z,8.10
2019-01-21T11:34:58.825Z,8.63
2019-01-21T11:37:26.813Z,8.30
2019-01-21T11:39:53.556Z,6.87
2019-01-21T11:42:20.789Z,8.57
2019-01-21T11:44:47.620Z,8.20
2019-01-21T11:47:14.337Z,8.20
2019-01-21T11:49:41.098Z,8.40
2019-01-21T11:52:09.223Z,8.30
2019-01-21T11:54:35.961Z,8.53
2019-01-21T11:57:04.365Z,10.57
2019-01-21T11:59:31.156Z,9.57
2019-01-21T12:01:59.074Z,9.50
2019-01-21T12:04:25.835Z,9.87
2019-01-21T12:06:52.915Z,9.97
2019-01-21T12:09:19.665Z,9.93
2019-01-21T12:11:46.408Z,9.63
2019-01-21T12:14:13.137Z,9.13
2019-01-21T12:16:41.661Z,8.83
2019-01-21T12:19:08.187Z,9.73
2019-01-21T12:21:34.821Z,9.73
2019-01-21T12:24:01.736Z,8.97
2019-01-21T12:26:28.868Z,9.00
2019-01-21T12:28:55.702Z,8.73
2019-01-21T12:31:22.486Z,10.47
2019-01-21T12:33:49.322Z,8.73
2019-01-21T12:36:16.058Z,8.97
2019-01-21T12:38:42.745Z,9.77
2019-01-21T12:41:09.768Z,10.27
2019-01-21T12:43:36.388Z,9.00
2019-01-21T12:46:04.252Z,9.13
2019-01-21T12:48:30.878Z,8.97
2019-01-21T12:50:57.629Z,9.30
2019-01-21T12:53:24.228Z,8.97
2019-01-21T12:55:51.251Z,9.30
2019-01-21T12:58:19.815Z,11.73
2019-01-21T13:00:46.556Z,10.10
2019-01-21T13:03:13.295Z,9.30
2019-01-21T13:05:39.957Z,10.33
2019-01-21T13:08:06.737Z,10.10
2019-01-21T13:10:33.520Z,10.07
2019-01-21T13:13:00.494Z,10.47
2019-01-21T13:15:27.295Z,9.87
2019-01-21T13:17:53.837Z,10.10
2019-01-21T13:20:21.809Z,9.57
2019-01-21T13:22:51.657Z,10.37
2019-01-21T13:25:17.135Z,10.93
2019-01-21T13:27:43.881Z,10.47
2019-01-21T13:30:10.607Z,10.57
2019-01-21T13:32:37.909Z,10.87
2019-01-21T13:35:05.163Z,11.27
2019-01-21T13:37:33.090Z,9.90
2019-01-21T13:39:59.717Z,10.70
2019-01-21T13:42:26.457Z,10.13
2019-01-21T13:44:54.799Z,10.50
2019-01-21T13:47:21.679Z,11.67
2019-01-21T13:49:50.185Z,10.27
2019-01-21T13:52:18.699Z,10.33
2019-01-21T13:54:45.319Z,11.63
2019-01-21T13:57:12.123Z,9.77
2019-01-21T13:59:39.083Z,10.73
2019-01-21T14:02:05.755Z,11.23
2019-01-21T14:04:34.187Z,10.07
2019-01-21T14:07:00.975Z,11.13
2019-01-21T14:09:27.733Z,11.73
2019-01-21T14:11:54.630Z,10.70
2019-01-21T14:14:21.369Z,10.73
2019-01-21T14:16:48.427Z,10.70
2019-01-21T14:19:15.221Z,9.40
2019-01-21T14:21:42.264Z,9.83
2019-01-21T14:24:09.160Z,10.53
2019-01-21T14:26:36.408Z,11.30
2019-01-21T14:29:03.164Z,11.50
2019-01-21T14:31:29.834Z,11.77
2019-01-21T14:33:56.529Z,11.53
2019-01-21T14:36:23.285Z,10.90
2019-01-21T14:38:51.144Z,10.60
2019-01-21T14:41:18.005Z,10.97
2019-01-21T14:43:44.772Z,10.60
2019-01-21T14:46:11.528Z,10.33
2019-01-21T14:48:38.539Z,10.33
2019-01-21T14:51:05.266Z,11.80
2019-01-21T14:53:32.204Z,10.83
2019-01-21T14:55:59.214Z,10.57
2019-01-21T14:58:25.988Z,11.27
2019-01-21T15:00:52.920Z,9.43
2019-01-21T15:03:20.196Z,9.73
2019-01-21T15:05:47.119Z,11.70
2019-01-21T15:08:13.777Z,10.97
2019-01-21T15:10:40.938Z,10.53
2019-01-21T15:13:07.915Z,10.47
2019-01-21T15:15:34.603Z,11.40
2019-01-21T15:18:01.380Z,12.07
2019-01-21T15:20:28.614Z,11.20
2019-01-21T15:22:55.330Z,11.27
2019-01-21T15:25:22.121Z,10.27
2019-01-21T15:27:49.172Z,10.27
2019-01-21T15:30:16.206Z,11.60
2019-01-21T15:32:43.117Z,10.07
2019-01-21T15:35:10.693Z,10.47
2019-01-21T15:37:37.303Z,10.63
2019-01-21T15:40:04.618Z,10.33
2019-01-21T15:42:31.572Z,11.40
2019-01-21T15:44:58.613Z,9.93
2019-01-21T15:47:25.607Z,10.30
2019-01-21T15:49:52.479Z,10.87
2019-01-21T15:52:19.169Z,11.20
2019-01-21T15:54:45.902Z,11.03
2019-01-21T15:57:12.695Z,11.40
2019-01-21T15:59:39.500Z,10.37
2019-01-21T16:02:07.252Z,11.27
2019-01-21T16:04:34.576Z,10.73
2019-01-21T16:07:01.445Z,9.83
2019-01-21T16:09:28.575Z,10.60
2019-01-21T16:11:55.399Z,9.60
2019-01-21T16:14:22.566Z,11.10
2019-01-21T16:16:51.053Z,11.53
2019-01-21T16:19:17.693Z,11.03
2019-01-21T16:21:44.579Z,10.67
2019-01-21T16:24:11.360Z,11.70
2019-01-21T16:26:38.227Z,11.47
2019-01-21T16:29:05.065Z,11.93
2019-01-21T16:31:31.963Z,12.30
2019-01-21T16:33:59.948Z,10.63
2019-01-21T16:36:27.827Z,12.03
2019-01-21T16:38:54.577Z,12.00
2019-01-21T16:41:21.312Z,10.93
2019-01-21T16:43:48.067Z,11.60
2019-01-21T16:46:14.713Z,11.57
2019-01-21T16:48:41.544Z,12.37
2019-01-21T16:51:08.143Z,11.63
2019-01-21T16:53:34.953Z,11.63
2019-01-21T16:56:01.860Z,12.37
2019-01-21T16:58:28.577Z,11.07
2019-01-21T17:00:55.407Z,12.40
2019-01-21T17:03:22.212Z,12.37
2019-01-21T17:05:50.484Z,12.23
2019-01-21T17:08:17.177Z,11.73
2019-01-21T17:10:43.792Z,12.23
2019-01-21T17:13:10.483Z,11.57
2019-01-21T17:15:37.223Z,11.43
2019-01-21T17:18:04.190Z,12.60
2019-01-21T17:20:30.839Z,11.90
2019-01-21T17:22:57.659Z,12.63
2019-01-21T17:25:26.349Z,13.00
2019-01-21T17:27:53.625Z,11.30
2019-01-21T17:30:20.282Z,13.00
2019-01-21T17:32:47.027Z,12.00
2019-01-21T17:35:13.765Z,10.33
2019-01-21T17:37:40.465Z,11.67
2019-01-21T17:40:07.708Z,12.77
2019-01-21T17:42:34.416Z,11.63
2019-01-21T17:45:02.373Z,13.47
2019-01-21T17:47:30.343Z,12.93
2019-01-21T17:49:57.238Z,11.97
2019-01-21T17:52:24.305Z,12.60
2019-01-21T17:54:52.476Z,12.30
2019-01-21T17:57:19.108Z,12.17
2019-01-21T17:59:45.843Z,12.13
2019-01-21T18:02:12.799Z,11.37
2019-01-21T18:04:42.284Z,12.83
2019-01-21T18:07:11.570Z,12.53
2019-01-21T18:09:38.184Z,12.60
2019-01-21T18:12:05.212Z,13.00
2019-01-21T18:14:33.063Z,12.97
2019-01-21T18:16:59.798Z,11.93
2019-01-21T18:19:26.456Z,13.20
2019-01-21T18:21:53.254Z,13.33
2019-01-21T18:24:21.116Z,13.60
2019-01-21T18:26:47.897Z,12.83
2019-01-21T18:29:14.850Z,13.27
2019-01-21T18:31:41.790Z,13.97
2019-01-21T18:34:08.563Z,13.17
2019-01-21T18:36:35.167Z,13.40
2019-01-21T18:39:02.090Z,14.00
2019-01-21T18:41:29.038Z,14.50
2019-01-21T18:43:56.110Z,14.43
2019-01-21T18:46:23.166Z,15.00
2019-01-21T18:48:49.928Z,14.10
2019-01-21T18:51:16.614Z,14.27
2019-01-21T18:53:43.366Z,14.33
2019-01-21T18:56:11.284Z,14.70
2019-01-21T18:58:37.973Z,15.17
2019-01-21T19:01:04.707Z,14.90
2019-01-21T19:03:33.679Z,15.30
2019-01-21T19:06:01.579Z,14.50
2019-01-21T19:08:28.206Z,15.30
2019-01-21T19:10:55.107Z,15.33
2019-01-21T19:13:22.131Z,14.30
2019-01-21T19:15:48.917Z,15.87
2019-01-21T19:18:17.131Z,14.47
2019-01-21T19:20:43.919Z,15.43
2019-01-21T19:23:10.554Z,13.97
2019-01-21T19:25:37.362Z,13.93
2019-01-21T19:28:04.194Z,13.90
2019-01-21T19:30:31.028Z,14.37
2019-01-21T19:32:57.619Z,15.63
2019-01-21T19:35:24.294Z,13.53
2019-01-21T19:37:52.987Z,14.93
2019-01-21T19:40:19.748Z,13.00
2019-01-21T19:42:46.301Z,13.70
2019-01-21T19:45:14.914Z,13.87
2019-01-21T19:47:42.801Z,13.83
2019-01-21T19:50:09.782Z,13.63
2019-01-21T19:52:36.440Z,12.70
2019-01-21T19:55:03.156Z,13.20
2019-01-21T19:57:29.776Z,13.37
2019-01-21T19:59:56.503Z,12.47
2019-01-21T20:02:23.483Z,13.10
2019-01-21T20:04:50.180Z,13.07
2019-01-21T20:07:18.741Z,12.73
2019-01-21T20:09:46.205Z,12.93
2019-01-21T20:12:12.838Z,14.23
2019-01-21T20:14:39.585Z,15.20
2019-01-21T20:17:06.227Z,13.77
2019-01-21T20:19:33.127Z,13.50
2019-01-21T20:21:59.819Z,13.17
2019-01-21T20:24:26.630Z,15.50
2019-01-21T20:26:53.336Z,13.90
2019-01-21T20:29:20.073Z,12.80
2019-01-21T20:31:46.825Z,14.73
2019-01-21T20:34:13.882Z,13.57
2019-01-21T20:36:40.484Z,14.00
2019-01-21T20:39:07.222Z,14.17
2019-01-21T20:41:33.950Z,14.57
2019-01-21T20:44:00.659Z,13.63
2019-01-21T20:46:27.423Z,14.67
2019-01-21T20:48:54.036Z,13.60
2019-01-21T20:51:22.651Z,13.60
2019-01-21T20:53:49.305Z,13.07
2019-01-21T20:56:15.986Z,12.80
2019-01-21T20:58:42.903Z,13.43
2019-01-21T21:01:09.589Z,11.87
2019-01-21T21:03:36.214Z,13.30
2019-01-21T21:06:03.150Z,13.07
2019-01-21T21:08:29.833Z,14.07
2019-01-21T21:10:58.181Z,14.27
2019-01-21T21:13:25.424Z,13.83
2019-01-21T21:15:52.273Z,14.80
2019-01-21T21:18:19.320Z,13.87
2019-01-21T21:20:46.206Z,14.20
2019-01-21T21:23:13.756Z,13.30
2019-01-21T21:25:40.644Z,13.23
2019-01-21T21:28:09.271Z,13.73
2019-01-21T21:30:36.572Z,12.97
2019-01-21T21:33:03.769Z,14.20
2019-01-21T21:35:30.610Z,12.23
2019-01-21T21:37:57.446Z,13.77
2019-01-21T21:40:24.291Z,13.90
2019-01-21T21:42:51.026Z,12.67
2019-01-21T21:45:17.772Z,13.07
2019-01-21T21:47:46.533Z,13.73
2019-01-21T21:50:13.723Z,13.50
2019-01-21T21:52:41.080Z,13.37
2019-01-21T21:55:07.800Z,13.30
2019-01-21T21:57:34.762Z,12.30
2019-01-21T22:00:01.723Z,13.10
2019-01-21T22:02:28.619Z,12.80
2019-01-21T22:04:55.505Z,13.17
2019-01-21T22:07:22.582Z,12.93
2019-01-21T22:09:49.313Z,12.97
2019-01-21T22:12:16.099Z,12.80
2019-01-21T22:14:42.907Z,12.03
2019-01-21T22:17:09.749Z,12.83
2019-01-21T22:19:36.659Z,13.93
2019-01-21T22:22:03.393Z,13.77
2019-01-21T22:24:30.299Z,12.23
2019-01-21T22:26:57.026Z,13.33
2019-01-21T22:29:23.690Z,13.27
2019-01-21T22:31:50.452Z,13.23
2019-01-21T22:34:17.362Z,12.33
2019-01-21T22:36:44.217Z,13.07
2019-01-21T22:39:12.961Z,12.60
2019-01-21T22:41:39.623Z,11.20
2019-01-21T22:44:09.593Z,13.33
2019-01-21T22:46:36.803Z,13.60
2019-01-21T22:49:03.907Z,13.03
2019-01-21T22:51:30.742Z,12.00
2019-01-21T22:53:57.389Z,12.20
2019-01-21T22:56:25.981Z,14.00
2019-01-21T22:58:52.616Z,13.13
2019-01-21T23:01:19.324Z,12.63
2019-01-21T23:03:46.564Z,12.23
2019-01-21T23:06:13.670Z,11.83
2019-01-21T23:08:40.290Z,11.87
2019-01-21T23:11:08.394Z,12.57
2019-01-21T23:13:35.096Z,12.93
2019-01-21T23:16:01.705Z,13.30
2019-01-21T23:18:28.592Z,12.40
2019-01-21T23:20:55.336Z,13.03
2019-01-21T23:23:22.676Z,13.47
2019-01-21T23:25:49.256Z,13.50
2019-01-21T23:28:16.059Z,12.60
2019-01-21T23:30:44.489Z,12.40
2019-01-21T23:33:11.226Z,12.40
2019-01-21T23:35:37.980Z,12.03
2019-01-21T23:38:04.714Z,12.10
2019-01-21T23:40:31.507Z,13.40
2019-01-21T23:42:58.250Z,13.30
2019-01-21T23:45:26.778Z,12.87
2019-01-21T23:47:53.357Z,11.00
2019-01-21T23:50:20.590Z,12.83
2019-01-21T23:52:48.020Z,14.10
2019-01-21T23:55:14.918Z,12.47
2019-01-21T23:57:41.642Z,12.43
